sensor_id;sensor_type;location;lat;lon;timestamp;temperature;humidity
17381;DHT22;8808;52.478;13.378;2023-11-22T00:02:22;2.20;99.90
17381;DHT22;8808;52.478;13.378;2023-11-22T00:04:52;2.20;99.90
17381;DHT22;8808;52.478;13.378;2023-11-22T00:07:19;2.20;99.90
17381;DHT22;8808;52.478;13.378;2023-11-22T00:09:46;2.30;99.90
17381;DHT22;8808;52.478;13.378;2023-11-22T00:12:13;2.20;99.90
17381;DHT22;8808;52.478;13.378;2023-11-22T00:14:44;2.20;99.90
17381;DHT22;8808;52.478;13.378;2023-11-22T00:17:13;2.30;99.90
17381;DHT22;8808;52.478;13.378;2023-11-22T00:19:40;2.20;99.90
17381;DHT22;8808;52.478;13.378;2023-11-22T00:22:08;2.20;99.90
17381;DHT22;8808;52.478;13.378;2023-11-22T00:24:38;2.20;99.90
17381;DHT22;8808;52.478;13.378;2023-11-22T00:27:05;2.30;99.90
17381;DHT22;8808;52.478;13.378;2023-11-22T00:29:32;2.40;99.90
17381;DHT22;8808;52.478;13.378;2023-11-22T00:32:01;2.30;99.90
17381;DHT22;8808;52.478;13.378;2023-11-22T00:34:28;2.30;99.90
17381;DHT22;8808;52.478;13.378;2023-11-22T00:36:55;2.30;99.90
17381;DHT22;8808;52.478;13.378;2023-11-22T00:39:22;2.30;99.90
17381;DHT22;8808;52.478;13.378;2023-11-22T00:41:49;2.30;99.90
17381;DHT22;8808;52.478;13.378;2023-11-22T00:44:16;2.20;99.90
17381;DHT22;8808;52.478;13.378;2023-11-22T00:46:43;2.30;99.90
17381;DHT22;8808;52.478;13.378;2023-11-22T00:49:12;2.20;99.90
17381;DHT22;8808;52.478;13.378;2023-11-22T00:51:39;2.30;99.90
17381;DHT22;8808;52.478;13.378;2023-11-22T00:54:07;2.20;99.90
17381;DHT22;8808;52.478;13.378;2023-11-22T00:56:35;2.10;99.90
17381;DHT22;8808;52.478;13.378;2023-11-22T00:59:01;2.20;99.90
17381;DHT22;8808;52.478;13.378;2023-11-22T01:01:29;2.10;99.90
17381;DHT22;8808;52.478;13.378;2023-11-22T01:03:57;2.10;99.90
17381;DHT22;8808;52.478;13.378;2023-11-22T01:06:26;2.10;99.90
17381;DHT22;8808;52.478;13.378;2023-11-22T01:08:52;2.20;99.90
17381;DHT22;8808;52.478;13.378;2023-11-22T01:11:20;2.10;99.90
17381;DHT22;8808;52.478;13.378;2023-11-22T01:13:46;2.10;99.90
17381;DHT22;8808;52.478;13.378;2023-11-22T01:16:13;1.90;99.90
17381;DHT22;8808;52.478;13.378;2023-11-22T01:18:41;1.90;99.90
17381;DHT22;8808;52.478;13.378;2023-11-22T01:21:08;1.80;99.90
17381;DHT22;8808;52.478;13.378;2023-11-22T01:23:37;1.80;99.90
17381;DHT22;8808;52.478;13.378;2023-11-22T01:26:04;1.80;99.90
17381;DHT22;8808;52.478;13.378;2023-11-22T01:28:32;1.80;99.90
17381;DHT22;8808;52.478;13.378;2023-11-22T01:30:59;1.70;99.90
17381;DHT22;8808;52.478;13.378;2023-11-22T01:33:27;1.90;99.90
17381;DHT22;8808;52.478;13.378;2023-11-22T01:35:54;1.90;99.90
17381;DHT22;8808;52.478;13.378;2023-11-22T01:38:21;1.70;99.90
17381;DHT22;8808;52.478;13.378;2023-11-22T01:40:51;1.70;99.90
17381;DHT22;8808;52.478;13.378;2023-11-22T01:43:19;1.60;99.90
17381;DHT22;8808;52.478;13.378;2023-11-22T01:45:46;1.50;99.90
17381;DHT22;8808;52.478;13.378;2023-11-22T01:48:13;1.60;99.90
17381;DHT22;8808;52.478;13.378;2023-11-22T01:50:41;1.50;99.90
17381;DHT22;8808;52.478;13.378;2023-11-22T01:53:10;1.70;99.90
17381;DHT22;8808;52.478;13.378;2023-11-22T01:55:38;1.50;99.90
17381;DHT22;8808;52.478;13.378;2023-11-22T01:58:07;1.50;99.90
17381;DHT22;8808;52.478;13.378;2023-11-22T02:03:03;1.50;99.90
17381;DHT22;8808;52.478;13.378;2023-11-22T02:05:30;1.70;99.90
17381;DHT22;8808;52.478;13.378;2023-11-22T02:07:57;1.70;99.90
17381;DHT22;8808;52.478;13.378;2023-11-22T02:10:24;1.80;99.90
17381;DHT22;8808;52.478;13.378;2023-11-22T02:12:51;1.70;99.90
17381;DHT22;8808;52.478;13.378;2023-11-22T02:15:19;1.50;99.90
17381;DHT22;8808;52.478;13.378;2023-11-22T02:17:46;1.60;99.90
17381;DHT22;8808;52.478;13.378;2023-11-22T02:20:13;1.60;99.90
17381;DHT22;8808;52.478;13.378;2023-11-22T02:22:44;1.60;99.90
17381;DHT22;8808;52.478;13.378;2023-11-22T02:25:13;1.50;99.90
17381;DHT22;8808;52.478;13.378;2023-11-22T02:27:40;1.50;99.90
17381;DHT22;8808;52.478;13.378;2023-11-22T02:30:08;1.50;99.90
17381;DHT22;8808;52.478;13.378;2023-11-22T02:32:36;1.60;99.90
17381;DHT22;8808;52.478;13.378;2023-11-22T02:35:05;1.50;99.90
17381;DHT22;8808;52.478;13.378;2023-11-22T02:37:33;1.50;99.90
17381;DHT22;8808;52.478;13.378;2023-11-22T02:40:04;1.40;99.90
17381;DHT22;8808;52.478;13.378;2023-11-22T02:42:33;1.40;99.90
17381;DHT22;8808;52.478;13.378;2023-11-22T02:45:00;1.40;99.90
17381;DHT22;8808;52.478;13.378;2023-11-22T02:47:27;1.30;99.90
17381;DHT22;8808;52.478;13.378;2023-11-22T02:49:56;1.30;99.90
17381;DHT22;8808;52.478;13.378;2023-11-22T02:52:23;1.20;99.90
17381;DHT22;8808;52.478;13.378;2023-11-22T02:54:52;1.10;99.90
17381;DHT22;8808;52.478;13.378;2023-11-22T02:57:19;1.20;99.90
17381;DHT22;8808;52.478;13.378;2023-11-22T02:59:47;1.10;99.90
17381;DHT22;8808;52.478;13.378;2023-11-22T03:02:14;1.20;99.90
17381;DHT22;8808;52.478;13.378;2023-11-22T03:04:42;1.20;99.90
17381;DHT22;8808;52.478;13.378;2023-11-22T03:07:09;1.20;99.90
17381;DHT22;8808;52.478;13.378;2023-11-22T03:09:36;1.20;99.90
17381;DHT22;8808;52.478;13.378;2023-11-22T03:12:04;1.10;99.90
17381;DHT22;8808;52.478;13.378;2023-11-22T03:14:32;1.00;99.90
17381;DHT22;8808;52.478;13.378;2023-11-22T03:17:00;1.10;99.90
17381;DHT22;8808;52.478;13.378;2023-11-22T03:19:27;1.10;99.90
17381;DHT22;8808;52.478;13.378;2023-11-22T03:21:54;0.90;99.90
17381;DHT22;8808;52.478;13.378;2023-11-22T03:24:21;0.90;99.90
17381;DHT22;8808;52.478;13.378;2023-11-22T03:26:48;0.90;99.90
17381;DHT22;8808;52.478;13.378;2023-11-22T03:29:15;1.00;99.90
17381;DHT22;8808;52.478;13.378;2023-11-22T03:31:43;0.90;99.90
17381;DHT22;8808;52.478;13.378;2023-11-22T03:34:13;0.90;99.90
17381;DHT22;8808;52.478;13.378;2023-11-22T03:36:40;0.80;99.90
17381;DHT22;8808;52.478;13.378;2023-11-22T03:39:07;0.80;99.90
17381;DHT22;8808;52.478;13.378;2023-11-22T03:41:35;0.80;99.90
17381;DHT22;8808;52.478;13.378;2023-11-22T03:44:04;0.80;99.90
17381;DHT22;8808;52.478;13.378;2023-11-22T03:46:34;0.70;99.90
17381;DHT22;8808;52.478;13.378;2023-11-22T03:49:01;0.70;99.90
17381;DHT22;8808;52.478;13.378;2023-11-22T03:51:30;0.70;99.90
17381;DHT22;8808;52.478;13.378;2023-11-22T03:53:57;0.80;99.90
17381;DHT22;8808;52.478;13.378;2023-11-22T03:56:24;0.90;99.90
17381;DHT22;8808;52.478;13.378;2023-11-22T03:58:51;0.80;99.90
17381;DHT22;8808;52.478;13.378;2023-11-22T04:01:18;0.80;99.90
17381;DHT22;8808;52.478;13.378;2023-11-22T04:03:46;0.80;99.90
17381;DHT22;8808;52.478;13.378;2023-11-22T04:06:13;0.60;99.90
17381;DHT22;8808;52.478;13.378;2023-11-22T04:08:42;0.70;99.90
17381;DHT22;8808;52.478;13.378;2023-11-22T04:11:10;0.70;99.90
17381;DHT22;8808;52.478;13.378;2023-11-22T04:13:37;0.70;99.90
17381;DHT22;8808;52.478;13.378;2023-11-22T04:16:05;0.40;99.90
17381;DHT22;8808;52.478;13.378;2023-11-22T04:18:34;0.40;99.90
17381;DHT22;8808;52.478;13.378;2023-11-22T04:21:01;0.40;99.90
17381;DHT22;8808;52.478;13.378;2023-11-22T04:23:30;0.50;99.90
17381;DHT22;8808;52.478;13.378;2023-11-22T04:25:59;0.70;99.90
17381;DHT22;8808;52.478;13.378;2023-11-22T04:28:27;0.60;99.90
17381;DHT22;8808;52.478;13.378;2023-11-22T04:30:55;0.50;99.90
17381;DHT22;8808;52.478;13.378;2023-11-22T04:33:22;0.60;99.90
17381;DHT22;8808;52.478;13.378;2023-11-22T04:35:50;0.50;99.90
17381;DHT22;8808;52.478;13.378;2023-11-22T04:38:17;0.50;99.90
17381;DHT22;8808;52.478;13.378;2023-11-22T04:40:44;0.60;99.90
17381;DHT22;8808;52.478;13.378;2023-11-22T04:43:12;0.40;99.90
17381;DHT22;8808;52.478;13.378;2023-11-22T04:45:39;0.40;99.90
17381;DHT22;8808;52.478;13.378;2023-11-22T04:48:06;0.50;99.90
17381;DHT22;8808;52.478;13.378;2023-11-22T04:50:33;0.40;99.90
17381;DHT22;8808;52.478;13.378;2023-11-22T04:53:00;0.40;99.90
17381;DHT22;8808;52.478;13.378;2023-11-22T04:55:28;0.50;99.90
17381;DHT22;8808;52.478;13.378;2023-11-22T04:57:55;0.30;99.90
17381;DHT22;8808;52.478;13.378;2023-11-22T05:00:23;0.40;99.90
17381;DHT22;8808;52.478;13.378;2023-11-22T05:02:51;0.20;99.90
17381;DHT22;8808;52.478;13.378;2023-11-22T05:05:18;0.20;99.90
17381;DHT22;8808;52.478;13.378;2023-11-22T05:07:44;0.30;99.90
17381;DHT22;8808;52.478;13.378;2023-11-22T05:10:11;0.20;99.90
17381;DHT22;8808;52.478;13.378;2023-11-22T05:12:38;0.30;99.90
17381;DHT22;8808;52.478;13.378;2023-11-22T05:15:06;0.40;99.90
17381;DHT22;8808;52.478;13.378;2023-11-22T05:17:34;0.30;99.90
17381;DHT22;8808;52.478;13.378;2023-11-22T05:20:02;0.40;99.90
17381;DHT22;8808;52.478;13.378;2023-11-22T05:22:29;0.40;99.90
17381;DHT22;8808;52.478;13.378;2023-11-22T05:24:57;0.40;99.90
17381;DHT22;8808;52.478;13.378;2023-11-22T05:27:23;0.40;99.90
17381;DHT22;8808;52.478;13.378;2023-11-22T05:29:50;0.40;99.90
17381;DHT22;8808;52.478;13.378;2023-11-22T05:32:17;0.40;99.90
17381;DHT22;8808;52.478;13.378;2023-11-22T05:34:45;0.30;99.90
17381;DHT22;8808;52.478;13.378;2023-11-22T05:37:13;0.30;99.90
17381;DHT22;8808;52.478;13.378;2023-11-22T05:39:40;0.20;99.90
17381;DHT22;8808;52.478;13.378;2023-11-22T05:42:07;0.20;99.90
17381;DHT22;8808;52.478;13.378;2023-11-22T05:44:34;0.20;99.90
17381;DHT22;8808;52.478;13.378;2023-11-22T05:47:01;0.20;99.90
17381;DHT22;8808;52.478;13.378;2023-11-22T05:49:28;0.00;99.90
17381;DHT22;8808;52.478;13.378;2023-11-22T05:51:56;0.00;99.90
17381;DHT22;8808;52.478;13.378;2023-11-22T05:54:24;0.00;99.90
17381;DHT22;8808;52.478;13.378;2023-11-22T05:56:51;0.10;99.90
17381;DHT22;8808;52.478;13.378;2023-11-22T05:59:19;0.10;99.90
17381;DHT22;8808;52.478;13.378;2023-11-22T06:01:46;0.10;99.90
17381;DHT22;8808;52.478;13.378;2023-11-22T06:04:13;0.10;99.90
17381;DHT22;8808;52.478;13.378;2023-11-22T06:06:40;0.10;99.90
17381;DHT22;8808;52.478;13.378;2023-11-22T06:09:09;0.00;99.90
17381;DHT22;8808;52.478;13.378;2023-11-22T06:11:39;0.10;99.90
17381;DHT22;8808;52.478;13.378;2023-11-22T06:14:06;0.20;99.90
17381;DHT22;8808;52.478;13.378;2023-11-22T06:16:33;0.10;99.90
17381;DHT22;8808;52.478;13.378;2023-11-22T06:19:00;0.00;99.90
17381;DHT22;8808;52.478;13.378;2023-11-22T06:21:27;0.10;99.90
17381;DHT22;8808;52.478;13.378;2023-11-22T06:23:54;0.00;99.90
17381;DHT22;8808;52.478;13.378;2023-11-22T06:26:25;0.10;99.90
17381;DHT22;8808;52.478;13.378;2023-11-22T06:28:52;0.10;99.90
17381;DHT22;8808;52.478;13.378;2023-11-22T06:31:19;0.10;99.90
17381;DHT22;8808;52.478;13.378;2023-11-22T06:33:46;0.10;99.90
17381;DHT22;8808;52.478;13.378;2023-11-22T06:36:13;0.10;99.90
17381;DHT22;8808;52.478;13.378;2023-11-22T06:38:40;0.00;99.90
17381;DHT22;8808;52.478;13.378;2023-11-22T06:41:07;-0.20;99.90
17381;DHT22;8808;52.478;13.378;2023-11-22T06:43:36;-0.20;99.90
17381;DHT22;8808;52.478;13.378;2023-11-22T06:46:03;-0.20;99.90
17381;DHT22;8808;52.478;13.378;2023-11-22T06:48:32;0.00;99.90
17381;DHT22;8808;52.478;13.378;2023-11-22T06:50:59;-0.10;99.90
17381;DHT22;8808;52.478;13.378;2023-11-22T06:53:26;-0.10;99.90
17381;DHT22;8808;52.478;13.378;2023-11-22T06:55:53;-0.10;99.90
17381;DHT22;8808;52.478;13.378;2023-11-22T06:58:20;-0.10;99.90
17381;DHT22;8808;52.478;13.378;2023-11-22T07:00:48;0.00;99.90
17381;DHT22;8808;52.478;13.378;2023-11-22T07:03:15;-0.10;99.90
17381;DHT22;8808;52.478;13.378;2023-11-22T07:05:42;0.00;99.90
17381;DHT22;8808;52.478;13.378;2023-11-22T07:08:09;0.00;99.90
17381;DHT22;8808;52.478;13.378;2023-11-22T07:10:37;0.20;99.90
17381;DHT22;8808;52.478;13.378;2023-11-22T07:13:04;0.10;99.90
17381;DHT22;8808;52.478;13.378;2023-11-22T07:15:31;0.00;99.90
17381;DHT22;8808;52.478;13.378;2023-11-22T07:17:59;0.00;99.90
17381;DHT22;8808;52.478;13.378;2023-11-22T07:20:26;0.10;99.90
17381;DHT22;8808;52.478;13.378;2023-11-22T07:22:53;0.10;99.90
17381;DHT22;8808;52.478;13.378;2023-11-22T07:25:23;0.20;99.90
17381;DHT22;8808;52.478;13.378;2023-11-22T07:27:51;0.20;99.90
17381;DHT22;8808;52.478;13.378;2023-11-22T07:30:19;0.10;99.90
17381;DHT22;8808;52.478;13.378;2023-11-22T07:32:49;0.20;99.90
17381;DHT22;8808;52.478;13.378;2023-11-22T07:35:17;0.30;99.90
17381;DHT22;8808;52.478;13.378;2023-11-22T07:37:46;0.20;99.90
17381;DHT22;8808;52.478;13.378;2023-11-22T07:40:13;0.20;99.90
17381;DHT22;8808;52.478;13.378;2023-11-22T07:42:40;0.20;99.90
17381;DHT22;8808;52.478;13.378;2023-11-22T07:45:10;0.40;99.90
17381;DHT22;8808;52.478;13.378;2023-11-22T07:47:37;0.40;99.90
17381;DHT22;8808;52.478;13.378;2023-11-22T07:50:08;0.50;99.90
17381;DHT22;8808;52.478;13.378;2023-11-22T07:52:37;0.50;99.90
17381;DHT22;8808;52.478;13.378;2023-11-22T07:55:06;0.50;99.90
17381;DHT22;8808;52.478;13.378;2023-11-22T07:57:33;0.50;99.90
17381;DHT22;8808;52.478;13.378;2023-11-22T08:00:00;0.60;99.90
17381;DHT22;8808;52.478;13.378;2023-11-22T08:02:33;0.70;99.90
17381;DHT22;8808;52.478;13.378;2023-11-22T08:05:00;0.70;99.90
17381;DHT22;8808;52.478;13.378;2023-11-22T08:07:29;0.60;99.90
17381;DHT22;8808;52.478;13.378;2023-11-22T08:09:59;0.70;99.90
17381;DHT22;8808;52.478;13.378;2023-11-22T08:12:35;0.70;99.90
17381;DHT22;8808;52.478;13.378;2023-11-22T08:15:03;0.70;99.90
17381;DHT22;8808;52.478;13.378;2023-11-22T08:17:31;0.70;99.90
17381;DHT22;8808;52.478;13.378;2023-11-22T08:19:58;0.70;99.90
17381;DHT22;8808;52.478;13.378;2023-11-22T08:22:26;0.80;99.90
17381;DHT22;8808;52.478;13.378;2023-11-22T08:24:54;0.90;99.90
17381;DHT22;8808;52.478;13.378;2023-11-22T08:27:24;0.90;99.90
17381;DHT22;8808;52.478;13.378;2023-11-22T08:29:51;0.90;99.90
17381;DHT22;8808;52.478;13.378;2023-11-22T08:32:18;1.00;99.90
17381;DHT22;8808;52.478;13.378;2023-11-22T08:34:49;1.00;99.90
17381;DHT22;8808;52.478;13.378;2023-11-22T08:37:16;1.10;99.90
17381;DHT22;8808;52.478;13.378;2023-11-22T08:39:43;1.00;99.90
17381;DHT22;8808;52.478;13.378;2023-11-22T08:42:10;1.00;99.90
17381;DHT22;8808;52.478;13.378;2023-11-22T08:44:38;1.10;99.90
17381;DHT22;8808;52.478;13.378;2023-11-22T08:47:05;1.10;99.90
17381;DHT22;8808;52.478;13.378;2023-11-22T08:49:33;1.20;99.90
17381;DHT22;8808;52.478;13.378;2023-11-22T08:52:00;1.30;99.90
17381;DHT22;8808;52.478;13.378;2023-11-22T08:54:28;1.30;99.90
17381;DHT22;8808;52.478;13.378;2023-11-22T08:56:56;1.30;99.90
17381;DHT22;8808;52.478;13.378;2023-11-22T08:59:22;1.20;99.90
17381;DHT22;8808;52.478;13.378;2023-11-22T09:01:51;1.30;99.90
17381;DHT22;8808;52.478;13.378;2023-11-22T09:04:18;1.40;99.90
17381;DHT22;8808;52.478;13.378;2023-11-22T09:06:45;1.30;99.90
17381;DHT22;8808;52.478;13.378;2023-11-22T09:09:13;1.20;99.90
17381;DHT22;8808;52.478;13.378;2023-11-22T09:11:40;1.20;99.90
17381;DHT22;8808;52.478;13.378;2023-11-22T09:14:07;1.40;99.90
17381;DHT22;8808;52.478;13.378;2023-11-22T09:16:36;1.30;99.90
17381;DHT22;8808;52.478;13.378;2023-11-22T09:19:05;1.30;99.90
17381;DHT22;8808;52.478;13.378;2023-11-22T09:21:33;1.30;99.90
17381;DHT22;8808;52.478;13.378;2023-11-22T09:24:00;1.70;99.90
17381;DHT22;8808;52.478;13.378;2023-11-22T09:26:28;1.80;99.90
17381;DHT22;8808;52.478;13.378;2023-11-22T09:28:55;1.50;99.90
17381;DHT22;8808;52.478;13.378;2023-11-22T09:31:22;1.50;99.90
17381;DHT22;8808;52.478;13.378;2023-11-22T09:33:49;1.70;99.90
17381;DHT22;8808;52.478;13.378;2023-11-22T09:36:17;1.80;99.90
17381;DHT22;8808;52.478;13.378;2023-11-22T09:38:44;1.90;99.90
17381;DHT22;8808;52.478;13.378;2023-11-22T09:41:12;1.80;99.90
17381;DHT22;8808;52.478;13.378;2023-11-22T09:43:41;1.60;99.90
17381;DHT22;8808;52.478;13.378;2023-11-22T09:46:09;1.70;99.90
17381;DHT22;8808;52.478;13.378;2023-11-22T09:48:39;1.90;99.90
17381;DHT22;8808;52.478;13.378;2023-11-22T09:51:11;2.10;99.90
17381;DHT22;8808;52.478;13.378;2023-11-22T09:53:53;2.10;99.90
17381;DHT22;8808;52.478;13.378;2023-11-22T09:56:22;2.80;99.90
17381;DHT22;8808;52.478;13.378;2023-11-22T09:58:52;2.50;99.90
17381;DHT22;8808;52.478;13.378;2023-11-22T10:01:22;2.90;99.90
17381;DHT22;8808;52.478;13.378;2023-11-22T10:03:49;2.80;99.90
17381;DHT22;8808;52.478;13.378;2023-11-22T10:06:17;2.70;99.90
17381;DHT22;8808;52.478;13.378;2023-11-22T10:08:45;2.60;99.90
17381;DHT22;8808;52.478;13.378;2023-11-22T10:11:15;2.40;99.90
17381;DHT22;8808;52.478;13.378;2023-11-22T10:13:43;2.50;99.90
17381;DHT22;8808;52.478;13.378;2023-11-22T10:16:12;2.50;99.90
17381;DHT22;8808;52.478;13.378;2023-11-22T10:18:42;2.50;99.90
17381;DHT22;8808;52.478;13.378;2023-11-22T10:21:25;2.40;99.90
17381;DHT22;8808;52.478;13.378;2023-11-22T10:23:55;2.40;99.90
17381;DHT22;8808;52.478;13.378;2023-11-22T10:26:23;2.40;99.90
17381;DHT22;8808;52.478;13.378;2023-11-22T10:28:50;2.40;99.90
17381;DHT22;8808;52.478;13.378;2023-11-22T10:31:18;2.50;99.90
17381;DHT22;8808;52.478;13.378;2023-11-22T10:33:45;2.30;99.90
17381;DHT22;8808;52.478;13.378;2023-11-22T10:36:13;2.40;99.90
17381;DHT22;8808;52.478;13.378;2023-11-22T10:38:40;2.50;99.90
17381;DHT22;8808;52.478;13.378;2023-11-22T10:41:09;2.40;99.90
17381;DHT22;8808;52.478;13.378;2023-11-22T10:43:37;2.70;99.90
17381;DHT22;8808;52.478;13.378;2023-11-22T10:46:05;2.50;99.90
17381;DHT22;8808;52.478;13.378;2023-11-22T10:48:32;2.60;99.90
17381;DHT22;8808;52.478;13.378;2023-11-22T10:51:01;2.60;99.90
17381;DHT22;8808;52.478;13.378;2023-11-22T10:53:32;2.70;99.90
17381;DHT22;8808;52.478;13.378;2023-11-22T10:56:04;2.60;99.90
17381;DHT22;8808;52.478;13.378;2023-11-22T10:58:34;2.70;99.90
17381;DHT22;8808;52.478;13.378;2023-11-22T11:01:04;2.60;99.90
17381;DHT22;8808;52.478;13.378;2023-11-22T11:03:36;2.90;99.90
17381;DHT22;8808;52.478;13.378;2023-11-22T11:06:08;2.70;99.90
17381;DHT22;8808;52.478;13.378;2023-11-22T11:08:38;2.60;99.90
17381;DHT22;8808;52.478;13.378;2023-11-22T11:11:06;2.90;99.90
17381;DHT22;8808;52.478;13.378;2023-11-22T11:13:34;3.30;99.90
17381;DHT22;8808;52.478;13.378;2023-11-22T11:16:02;3.60;99.90
17381;DHT22;8808;52.478;13.378;2023-11-22T11:18:29;3.60;99.90
17381;DHT22;8808;52.478;13.378;2023-11-22T11:20:58;3.60;99.90
17381;DHT22;8808;52.478;13.378;2023-11-22T11:23:26;3.60;99.90
17381;DHT22;8808;52.478;13.378;2023-11-22T11:25:55;3.30;99.90
17381;DHT22;8808;52.478;13.378;2023-11-22T11:28:22;3.00;99.90
17381;DHT22;8808;52.478;13.378;2023-11-22T11:30:53;3.20;99.90
17381;DHT22;8808;52.478;13.378;2023-11-22T11:33:27;3.50;99.90
17381;DHT22;8808;52.478;13.378;2023-11-22T11:35:56;3.30;99.90
17381;DHT22;8808;52.478;13.378;2023-11-22T11:38:30;3.10;99.90
17381;DHT22;8808;52.478;13.378;2023-11-22T11:41:06;3.40;99.90
17381;DHT22;8808;52.478;13.378;2023-11-22T11:43:44;3.10;99.90
17381;DHT22;8808;52.478;13.378;2023-11-22T11:46:13;3.20;99.90
17381;DHT22;8808;52.478;13.378;2023-11-22T11:48:42;3.30;99.90
17381;DHT22;8808;52.478;13.378;2023-11-22T11:51:13;3.40;99.90
17381;DHT22;8808;52.478;13.378;2023-11-22T11:53:41;3.20;99.90
17381;DHT22;8808;52.478;13.378;2023-11-22T11:56:08;3.20;99.90
17381;DHT22;8808;52.478;13.378;2023-11-22T11:58:35;3.30;99.90
17381;DHT22;8808;52.478;13.378;2023-11-22T12:01:04;3.20;99.90
17381;DHT22;8808;52.478;13.378;2023-11-22T12:03:32;3.20;99.90
17381;DHT22;8808;52.478;13.378;2023-11-22T12:05:59;3.60;99.90
17381;DHT22;8808;52.478;13.378;2023-11-22T12:08:26;3.50;99.90
17381;DHT22;8808;52.478;13.378;2023-11-22T12:10:56;3.40;99.90
17381;DHT22;8808;52.478;13.378;2023-11-22T12:13:24;3.30;99.90
17381;DHT22;8808;52.478;13.378;2023-11-22T12:15:52;3.50;99.90
17381;DHT22;8808;52.478;13.378;2023-11-22T12:18:20;4.00;99.90
17381;DHT22;8808;52.478;13.378;2023-11-22T12:20:55;4.40;99.90
17381;DHT22;8808;52.478;13.378;2023-11-22T12:23:23;4.40;99.90
17381;DHT22;8808;52.478;13.378;2023-11-22T12:25:54;4.40;99.90
17381;DHT22;8808;52.478;13.378;2023-11-22T12:28:23;4.30;99.90
17381;DHT22;8808;52.478;13.378;2023-11-22T12:30:50;4.00;99.90
17381;DHT22;8808;52.478;13.378;2023-11-22T12:33:17;4.30;99.90
17381;DHT22;8808;52.478;13.378;2023-11-22T12:35:45;3.80;99.90
17381;DHT22;8808;52.478;13.378;2023-11-22T12:38:13;4.10;99.90
17381;DHT22;8808;52.478;13.378;2023-11-22T12:40:44;4.30;99.90
17381;DHT22;8808;52.478;13.378;2023-11-22T12:43:13;4.60;99.90
17381;DHT22;8808;52.478;13.378;2023-11-22T12:45:40;4.50;99.90
17381;DHT22;8808;52.478;13.378;2023-11-22T12:48:21;4.40;99.90
17381;DHT22;8808;52.478;13.378;2023-11-22T12:50:49;4.10;99.90
17381;DHT22;8808;52.478;13.378;2023-11-22T12:53:17;4.20;99.90
17381;DHT22;8808;52.478;13.378;2023-11-22T12:55:48;4.00;99.90
17381;DHT22;8808;52.478;13.378;2023-11-22T12:58:15;4.10;99.90
17381;DHT22;8808;52.478;13.378;2023-11-22T13:00:44;4.20;99.90
17381;DHT22;8808;52.478;13.378;2023-11-22T13:03:11;4.10;99.90
17381;DHT22;8808;52.478;13.378;2023-11-22T13:05:39;3.80;99.90
17381;DHT22;8808;52.478;13.378;2023-11-22T13:08:06;3.90;99.90
17381;DHT22;8808;52.478;13.378;2023-11-22T13:10:38;3.90;99.90
17381;DHT22;8808;52.478;13.378;2023-11-22T13:13:04;3.60;99.90
17381;DHT22;8808;52.478;13.378;2023-11-22T13:15:34;3.70;99.90
17381;DHT22;8808;52.478;13.378;2023-11-22T13:18:02;3.60;99.90
17381;DHT22;8808;52.478;13.378;2023-11-22T13:20:29;3.60;99.90
17381;DHT22;8808;52.478;13.378;2023-11-22T13:22:56;3.50;99.90
17381;DHT22;8808;52.478;13.378;2023-11-22T13:25:25;3.60;99.90
17381;DHT22;8808;52.478;13.378;2023-11-22T13:27:54;3.40;99.90
17381;DHT22;8808;52.478;13.378;2023-11-22T13:30:22;3.40;99.90
17381;DHT22;8808;52.478;13.378;2023-11-22T13:32:51;3.40;99.90
17381;DHT22;8808;52.478;13.378;2023-11-22T13:35:18;3.50;99.90
17381;DHT22;8808;52.478;13.378;2023-11-22T13:37:46;3.60;99.90
17381;DHT22;8808;52.478;13.378;2023-11-22T13:40:15;3.40;99.90
17381;DHT22;8808;52.478;13.378;2023-11-22T13:42:43;3.50;99.90
17381;DHT22;8808;52.478;13.378;2023-11-22T13:45:12;3.50;99.90
17381;DHT22;8808;52.478;13.378;2023-11-22T13:47:43;3.50;99.90
17381;DHT22;8808;52.478;13.378;2023-11-22T13:50:12;3.50;99.90
17381;DHT22;8808;52.478;13.378;2023-11-22T13:52:41;3.50;99.90
17381;DHT22;8808;52.478;13.378;2023-11-22T13:55:08;3.20;99.90
17381;DHT22;8808;52.478;13.378;2023-11-22T13:57:37;3.20;99.90
17381;DHT22;8808;52.478;13.378;2023-11-22T14:00:04;3.20;99.90
17381;DHT22;8808;52.478;13.378;2023-11-22T14:02:36;3.30;99.90
17381;DHT22;8808;52.478;13.378;2023-11-22T14:05:03;3.40;99.90
17381;DHT22;8808;52.478;13.378;2023-11-22T14:07:34;3.10;99.90
17381;DHT22;8808;52.478;13.378;2023-11-22T14:10:01;3.40;99.90
17381;DHT22;8808;52.478;13.378;2023-11-22T14:12:29;3.30;99.90
17381;DHT22;8808;52.478;13.378;2023-11-22T14:14:57;3.20;99.90
17381;DHT22;8808;52.478;13.378;2023-11-22T14:17:24;3.20;99.90
17381;DHT22;8808;52.478;13.378;2023-11-22T14:19:52;3.10;99.90
17381;DHT22;8808;52.478;13.378;2023-11-22T14:22:20;3.30;99.90
17381;DHT22;8808;52.478;13.378;2023-11-22T14:24:47;3.20;99.90
17381;DHT22;8808;52.478;13.378;2023-11-22T14:27:14;3.00;99.90
17381;DHT22;8808;52.478;13.378;2023-11-22T14:29:41;3.00;99.90
17381;DHT22;8808;52.478;13.378;2023-11-22T14:32:09;3.10;99.90
17381;DHT22;8808;52.478;13.378;2023-11-22T14:34:36;3.20;99.90
17381;DHT22;8808;52.478;13.378;2023-11-22T14:37:05;3.10;99.90
17381;DHT22;8808;52.478;13.378;2023-11-22T14:39:32;3.00;99.90
17381;DHT22;8808;52.478;13.378;2023-11-22T14:41:59;2.90;99.90
17381;DHT22;8808;52.478;13.378;2023-11-22T14:44:26;3.00;99.90
17381;DHT22;8808;52.478;13.378;2023-11-22T14:46:53;3.00;99.90
17381;DHT22;8808;52.478;13.378;2023-11-22T14:49:20;2.90;99.90
17381;DHT22;8808;52.478;13.378;2023-11-22T14:51:47;2.70;99.90
17381;DHT22;8808;52.478;13.378;2023-11-22T14:54:16;2.70;99.90
17381;DHT22;8808;52.478;13.378;2023-11-22T14:56:42;2.80;99.90
17381;DHT22;8808;52.478;13.378;2023-11-22T14:59:11;2.80;99.90
17381;DHT22;8808;52.478;13.378;2023-11-22T15:01:38;2.70;99.90
17381;DHT22;8808;52.478;13.378;2023-11-22T15:04:07;2.60;99.90
17381;DHT22;8808;52.478;13.378;2023-11-22T15:06:36;2.50;99.90
17381;DHT22;8808;52.478;13.378;2023-11-22T15:09:03;2.70;99.90
17381;DHT22;8808;52.478;13.378;2023-11-22T15:11:37;2.70;99.90
17381;DHT22;8808;52.478;13.378;2023-11-22T15:14:04;2.70;99.90
17381;DHT22;8808;52.478;13.378;2023-11-22T15:16:31;2.70;99.90
17381;DHT22;8808;52.478;13.378;2023-11-22T15:18:59;2.60;99.90
17381;DHT22;8808;52.478;13.378;2023-11-22T15:21:27;2.80;99.90
17381;DHT22;8808;52.478;13.378;2023-11-22T15:23:54;2.70;99.90
17381;DHT22;8808;52.478;13.378;2023-11-22T15:26:22;2.80;99.90
17381;DHT22;8808;52.478;13.378;2023-11-22T15:28:51;2.60;99.90
17381;DHT22;8808;52.478;13.378;2023-11-22T15:31:18;2.50;99.90
17381;DHT22;8808;52.478;13.378;2023-11-22T15:33:45;2.60;99.90
17381;DHT22;8808;52.478;13.378;2023-11-22T15:36:12;2.60;99.90
17381;DHT22;8808;52.478;13.378;2023-11-22T15:38:39;2.50;99.90
17381;DHT22;8808;52.478;13.378;2023-11-22T15:41:06;2.60;99.90
17381;DHT22;8808;52.478;13.378;2023-11-22T15:43:34;2.70;99.90
17381;DHT22;8808;52.478;13.378;2023-11-22T15:46:01;2.70;99.90
17381;DHT22;8808;52.478;13.378;2023-11-22T15:48:30;2.70;99.90
17381;DHT22;8808;52.478;13.378;2023-11-22T15:50:58;2.50;99.90
17381;DHT22;8808;52.478;13.378;2023-11-22T15:53:25;2.50;99.90